Time;durP1;ratioP1;P1;durP2;ratioP2;P2;SDS_P1;SDS_P2;PMS_P1;PMS_P2;Temp;Humidity;BMP_temperature;BMP_pressure;BME280_temperature;BME280_humidity;BME280_pressure;Samples;Min_cycle;Max_cycle;Signal;HPM_P1;HPM_P2
2021/12/27 00:01:49;;;;;;;5.72;4.90;;;16.60;52.00;;;;;;5053421;28;20171;-59
2021/12/27 00:04:15;;;;;;;5.05;4.65;;;16.50;52.00;;;;;;5052832;28;20206;-59
2021/12/27 00:06:40;;;;;;;5.13;4.63;;;16.50;52.10;;;;;;5052911;28;20532;-59
2021/12/27 00:09:06;;;;;;;5.55;4.85;;;16.50;52.00;;;;;;5053166;28;20182;-59
2021/12/27 00:11:31;;;;;;;5.45;4.93;;;16.50;52.10;;;;;;5052316;28;20171;-60
2021/12/27 00:13:57;;;;;;;6.18;5.13;;;16.50;52.10;;;;;;5053260;28;20182;-60
2021/12/27 00:16:22;;;;;;;5.40;4.90;;;16.50;52.10;;;;;;5052150;28;20182;-60
2021/12/27 00:18:48;;;;;;;5.43;4.93;;;16.50;52.10;;;;;;5052221;28;20207;-60
2021/12/27 00:21:13;;;;;;;5.25;4.60;;;16.40;52.10;;;;;;5052767;28;20175;-59
2021/12/27 00:23:39;;;;;;;5.13;4.63;;;16.40;52.20;;;;;;5052682;28;20910;-59
2021/12/27 00:26:04;;;;;;;4.95;4.55;;;16.40;52.10;;;;;;5052040;28;20167;-58
2021/12/27 00:28:30;;;;;;;6.95;5.05;;;16.40;52.20;;;;;;5052555;28;20250;-58
2021/12/27 00:31:00;;;;;;;5.07;4.57;;;16.40;52.20;;;;;;5052884;28;20696;-59
2021/12/27 00:33:26;;;;;;;4.78;4.38;;;16.30;52.20;;;;;;5051805;28;20175;-59
2021/12/27 00:35:51;;;;;;;5.38;4.72;;;16.30;52.20;;;;;;5052615;28;20202;-60
2021/12/27 00:38:17;;;;;;;5.53;5.03;;;16.30;52.20;;;;;;5052598;28;20229;-60
2021/12/27 00:40:42;;;;;;;4.88;4.47;;;16.30;52.20;;;;;;5051691;28;20503;-60
2021/12/27 00:43:08;;;;;;;5.55;4.53;;;16.30;52.20;;;;;;5052384;28;20218;-59
2021/12/27 00:45:33;;;;;;;5.45;4.95;;;16.30;52.30;;;;;;5051006;28;20175;-60
2021/12/27 00:47:59;;;;;;;5.18;4.43;;;16.30;52.20;;;;;;5051499;28;20774;-59
2021/12/27 00:50:25;;;;;;;5.35;4.85;;;16.20;52.20;;;;;;5052181;28;20612;-60
2021/12/27 00:52:53;;;;;;;5.05;4.60;;;16.20;52.20;;;;;;5052246;28;20368;-59
2021/12/27 00:55:19;;;;;;;5.05;4.65;;;16.20;52.20;;;;;;5051164;28;20634;-59
2021/12/27 00:57:46;;;;;;;4.93;4.53;;;16.20;52.20;;;;;;5052421;28;20175;-60
2021/12/27 01:00:13;;;;;;;5.07;4.57;;;16.20;52.30;;;;;;5051829;28;20222;-60
2021/12/27 01:02:39;;;;;;;4.68;4.22;;;16.20;52.20;;;;;;5051969;28;20237;-61
2021/12/27 01:05:05;;;;;;;4.10;3.80;;;16.20;52.20;;;;;;5052170;28;20579;-60
2021/12/27 01:07:30;;;;;;;5.32;4.82;;;16.20;52.30;;;;;;5051084;28;20201;-60
2021/12/27 01:17:45;;;;;;;5.25;4.75;;;16.10;52.20;;;;;;5051888;28;20193;-60
2021/12/27 01:20:13;;;;;;;5.55;4.97;;;16.10;52.30;;;;;;5052087;28;20298;-60
2021/12/27 01:22:38;;;;;;;4.82;4.40;;;16.10;52.30;;;;;;5050982;28;20211;-61
2021/12/27 01:25:06;;;;;;;4.95;4.45;;;16.10;52.30;;;;;;5051662;28;20213;-60
2021/12/27 01:27:31;;;;;;;4.95;4.45;;;16.10;52.30;;;;;;5050953;28;20168;-60
2021/12/27 01:29:57;;;;;;;4.55;4.15;;;16.10;52.30;;;;;;5050655;28;20237;-60
2021/12/27 01:32:25;;;;;;;4.85;4.45;;;16.10;52.30;;;;;;5051262;28;20207;-60
2021/12/27 01:34:50;;;;;;;5.22;4.32;;;16.00;52.40;;;;;;5051701;28;20520;-60
2021/12/27 01:37:18;;;;;;;4.65;4.05;;;16.00;52.30;;;;;;5051045;28;20174;-60
2021/12/27 01:39:44;;;;;;;4.75;4.35;;;16.00;52.30;;;;;;5051586;28;20242;-60
2021/12/27 01:42:10;;;;;;;4.57;4.18;;;16.00;52.30;;;;;;5051694;28;20199;-59
2021/12/27 01:44:35;;;;;;;4.70;4.20;;;16.00;52.30;;;;;;5050360;28;20612;-60
2021/12/27 01:47:01;;;;;;;4.95;4.45;;;16.00;52.30;;;;;;5051516;28;20259;-60
2021/12/27 01:49:26;;;;;;;4.35;3.95;;;16.00;52.30;;;;;;5050474;28;20227;-59
2021/12/27 01:51:52;;;;;;;4.72;4.28;;;16.00;52.30;;;;;;5051354;28;20183;-60
2021/12/27 01:54:17;;;;;;;4.75;4.35;;;16.00;52.30;;;;;;5051450;28;20184;-60
2021/12/27 01:56:43;;;;;;;5.03;4.20;;;16.00;52.40;;;;;;5048847;28;20167;-60
2021/12/27 01:59:08;;;;;;;4.15;3.75;;;15.90;52.30;;;;;;5050001;28;20214;-59
2021/12/27 02:01:34;;;;;;;4.30;3.92;;;15.90;52.30;;;;;;5050966;28;20182;-60
2021/12/27 02:03:59;;;;;;;4.63;3.88;;;16.00;52.30;;;;;;5050556;28;20171;-58
2021/12/27 02:06:25;;;;;;;4.53;4.15;;;15.90;52.30;;;;;;5051101;28;20592;-59
2021/12/27 02:08:51;;;;;;;4.80;4.28;;;15.90;52.40;;;;;;5051305;28;20592;-59
2021/12/27 02:11:17;;;;;;;4.68;4.28;;;15.90;52.30;;;;;;5050405;28;20656;-59
2021/12/27 02:13:44;;;;;;;4.32;3.92;;;15.90;52.40;;;;;;5050993;28;20171;-60
2021/12/27 02:16:11;;;;;;;4.00;3.70;;;15.90;52.40;;;;;;5051011;28;20175;-59
2021/12/27 02:18:37;;;;;;;4.40;4.00;;;15.90;52.50;;;;;;5050242;28;20214;-59
2021/12/27 02:21:03;;;;;;;4.63;4.15;;;15.90;52.40;;;;;;5051334;28;20248;-59
2021/12/27 02:23:28;;;;;;;4.22;3.83;;;15.80;52.40;;;;;;5050748;28;20610;-60
2021/12/27 02:25:57;;;;;;;4.70;4.30;;;15.80;52.40;;;;;;5050338;28;20684;-59
2021/12/27 02:28:22;;;;;;;3.90;3.60;;;15.80;52.40;;;;;;5050796;28;20244;-60
2021/12/27 02:30:51;;;;;;;4.25;3.85;;;15.80;52.40;;;;;;5050927;28;20175;-60
2021/12/27 02:33:17;;;;;;;4.82;4.07;;;15.80;52.40;;;;;;5050577;28;20318;-59
2021/12/27 02:35:44;;;;;;;5.00;4.55;;;15.80;52.50;;;;;;5050761;28;20645;-59
2021/12/27 02:38:11;;;;;;;4.82;4.32;;;15.80;52.40;;;;;;5050849;28;20649;-59
2021/12/27 02:40:37;;;;;;;4.50;4.10;;;15.80;52.40;;;;;;5052802;28;20186;-59
2021/12/27 02:43:05;;;;;;;4.82;4.32;;;15.80;52.50;;;;;;5054835;28;20175;-59
2021/12/27 02:45:35;;;;;;;4.40;4.05;;;15.70;52.40;;;;;;5054331;28;20180;-59
2021/12/27 02:48:00;;;;;;;4.97;4.20;;;15.70;52.40;;;;;;5054021;28;20227;-59
2021/12/27 02:50:26;;;;;;;3.90;3.60;;;15.70;52.40;;;;;;5054331;28;20167;-59
2021/12/27 02:52:54;;;;;;;4.57;4.18;;;15.70;52.50;;;;;;5054197;28;20167;-60
2021/12/27 02:55:19;;;;;;;4.60;4.20;;;15.70;52.40;;;;;;5054379;28;20212;-60
2021/12/27 02:57:46;;;;;;;4.47;4.05;;;15.70;52.50;;;;;;5054548;28;20649;-60
2021/12/27 03:00:23;;;;;;;4.70;4.30;;;15.70;52.50;;;;;;5054040;28;20225;-61
2021/12/27 03:02:49;;;;;;;4.03;3.75;;;15.70;52.50;;;;;;5054660;28;20179;-60
2021/12/27 03:05:16;;;;;;;3.85;3.50;;;15.70;52.50;;;;;;5054636;28;20194;-59
2021/12/27 03:07:42;;;;;;;4.70;4.30;;;15.70;52.60;;;;;;5053486;28;20183;-60
2021/12/27 03:10:09;;;;;;;4.40;4.00;;;15.70;52.60;;;;;;5054286;28;20515;-60
2021/12/27 03:12:34;;;;;;;4.63;4.22;;;15.70;52.50;;;;;;5054109;28;20177;-59
2021/12/27 03:15:00;;;;;;;4.53;4.13;;;15.70;52.60;;;;;;5053500;28;20575;-60
2021/12/27 03:17:25;;;;;;;3.92;3.63;;;15.60;52.50;;;;;;5054193;28;20179;-60
2021/12/27 03:19:51;;;;;;;4.10;3.80;;;15.60;52.50;;;;;;5054218;28;20214;-60
2021/12/27 03:22:16;;;;;;;5.03;4.22;;;15.60;52.50;;;;;;5053231;28;20534;-60
2021/12/27 03:24:45;;;;;;;4.00;3.70;;;15.60;52.50;;;;;;5053913;28;20195;-59
2021/12/27 03:27:10;;;;;;;4.43;4.03;;;15.60;52.60;;;;;;5053930;28;20229;-59
2021/12/27 03:29:36;;;;;;;3.95;3.65;;;15.60;52.50;;;;;;5053117;28;20175;-58
2021/12/27 03:32:02;;;;;;;3.83;3.53;;;15.60;52.60;;;;;;5054274;28;20210;-59
2021/12/27 03:34:31;;;;;;;4.18;3.88;;;15.60;52.60;;;;;;5053761;28;20218;-59
2021/12/27 03:36:57;;;;;;;4.13;3.83;;;15.50;52.60;;;;;;5053737;28;20528;-59
2021/12/27 03:39:22;;;;;;;4.10;3.70;;;15.60;52.60;;;;;;5054092;28;20203;-58
2021/12/27 03:41:48;;;;;;;3.92;3.63;;;15.50;52.60;;;;;;5054329;28;20183;-59
2021/12/27 03:44:14;;;;;;;4.13;3.83;;;15.50;52.60;;;;;;5053356;28;20179;-59
2021/12/27 03:46:42;;;;;;;3.78;3.47;;;15.50;52.60;;;;;;5054649;28;20644;-59
2021/12/27 03:49:08;;;;;;;3.53;3.22;;;15.50;52.60;;;;;;5052577;28;20246;-59
2021/12/27 03:51:34;;;;;;;3.78;3.47;;;15.50;52.60;;;;;;5052032;28;20188;-58
2021/12/27 03:54:00;;;;;;;4.22;3.92;;;15.50;52.60;;;;;;5053321;28;20565;-59
2021/12/27 03:56:27;;;;;;;4.18;3.78;;;15.50;52.60;;;;;;5052632;28;20175;-59
2021/12/27 03:59:19;;;;;;;4.10;3.70;;;15.50;52.60;;;;;;5053806;28;20211;-60
2021/12/27 04:01:46;;;;;;;3.70;3.40;;;15.50;52.60;;;;;;5053346;28;20179;-59
2021/12/27 04:04:12;;;;;;;4.00;3.70;;;15.50;52.70;;;;;;5052773;28;20629;-59
2021/12/27 04:06:37;;;;;;;4.25;3.85;;;15.50;52.70;;;;;;5053136;28;20171;-59
2021/12/27 04:09:03;;;;;;;4.22;3.83;;;15.50;52.70;;;;;;5053712;28;20180;-60
2021/12/27 04:11:28;;;;;;;3.92;3.63;;;15.40;52.70;;;;;;5052426;28;20182;-59
2021/12/27 04:13:55;;;;;;;3.85;3.50;;;15.40;52.60;;;;;;5053563;28;20528;-59
2021/12/27 04:16:21;;;;;;;4.45;4.07;;;15.40;52.60;;;;;;5053389;28;20191;-60
2021/12/27 04:18:46;;;;;;;4.20;3.90;;;15.40;52.70;;;;;;5052464;28;20229;-59
2021/12/27 04:21:12;;;;;;;3.70;3.40;;;15.40;52.70;;;;;;5053077;28;20581;-58
2021/12/27 04:23:37;;;;;;;3.88;3.58;;;15.40;52.70;;;;;;5053040;28;20176;-58
2021/12/27 04:26:03;;;;;;;3.95;3.55;;;15.40;52.70;;;;;;5052404;28;20179;-58
2021/12/27 04:28:29;;;;;;;4.18;3.88;;;15.40;52.70;;;;;;5052769;28;20320;-59
2021/12/27 04:30:54;;;;;;;3.85;3.55;;;15.40;52.70;;;;;;5053116;28;20213;-59
2021/12/27 04:33:20;;;;;;;4.20;3.80;;;15.30;52.70;;;;;;5052045;28;20203;-59
2021/12/27 04:35:45;;;;;;;3.92;3.63;;;15.40;52.70;;;;;;5052822;28;20207;-60
2021/12/27 04:38:11;;;;;;;3.65;3.35;;;15.30;52.70;;;;;;5052947;28;20261;-60
2021/12/27 04:40:38;;;;;;;3.85;3.47;;;15.30;52.70;;;;;;5051999;28;20191;-59
2021/12/27 04:43:09;;;;;;;4.03;3.67;;;15.30;52.70;;;;;;5052815;28;20179;-59
2021/12/27 04:45:34;;;;;;;3.60;3.30;;;15.30;52.70;;;;;;5051845;28;20207;-59
2021/12/27 04:48:01;;;;;;;4.13;3.78;;;15.30;52.80;;;;;;5052434;28;20215;-58
2021/12/27 04:50:27;;;;;;;4.00;3.70;;;15.30;52.80;;;;;;5052081;28;20662;-59
2021/12/27 04:52:53;;;;;;;3.40;3.10;;;15.30;52.80;;;;;;5052125;28;20183;-60
2021/12/27 04:55:21;;;;;;;3.95;3.60;;;15.30;52.90;;;;;;5052664;28;20175;-58
2021/12/27 04:57:46;;;;;;;4.03;3.72;;;15.30;52.80;;;;;;5052641;28;20171;-59
2021/12/27 05:00:12;;;;;;;3.92;3.60;;;15.30;52.80;;;;;;5051962;28;20215;-59
2021/12/27 05:02:38;;;;;;;3.83;3.42;;;15.30;52.80;;;;;;5051905;28;20652;-61
2021/12/27 05:05:04;;;;;;;3.72;3.40;;;15.30;52.80;;;;;;5052638;28;20182;-58
2021/12/27 05:07:29;;;;;;;4.00;3.60;;;15.30;52.90;;;;;;5051550;28;20202;-59
2021/12/27 05:09:55;;;;;;;3.75;3.45;;;15.20;52.80;;;;;;5052238;28;20194;-59
2021/12/27 05:12:20;;;;;;;3.95;3.65;;;15.20;52.80;;;;;;5052068;28;20202;-60
2021/12/27 05:14:46;;;;;;;4.20;3.80;;;15.20;52.90;;;;;;5051667;28;20232;-60
2021/12/27 05:17:11;;;;;;;4.05;3.72;;;15.20;52.90;;;;;;5052080;28;20175;-60
2021/12/27 05:19:37;;;;;;;3.60;3.30;;;15.20;52.90;;;;;;5051723;28;20514;-59
2021/12/27 05:22:02;;;;;;;3.60;3.30;;;15.20;52.90;;;;;;5051531;28;20171;-59
2021/12/27 05:24:28;;;;;;;3.70;3.20;;;15.20;52.80;;;;;;5051724;28;20171;-60
2021/12/27 05:26:54;;;;;;;3.55;3.25;;;15.20;52.90;;;;;;5052031;28;20233;-60
2021/12/27 05:29:19;;;;;;;3.72;3.42;;;15.20;52.90;;;;;;5050853;28;20629;-59
2021/12/27 05:31:45;;;;;;;4.38;3.97;;;15.20;52.90;;;;;;5051945;28;20621;-59
2021/12/27 05:34:11;;;;;;;3.90;3.60;;;15.20;52.90;;;;;;5051780;28;20179;-60
2021/12/27 05:36:36;;;;;;;3.70;3.40;;;15.10;52.90;;;;;;5050902;28;20514;-61
2021/12/27 05:39:02;;;;;;;3.70;3.40;;;15.10;52.90;;;;;;5051943;28;20621;-60
2021/12/27 05:41:28;;;;;;;3.50;3.20;;;15.10;52.90;;;;;;5051359;28;20213;-60
2021/12/27 05:43:53;;;;;;;3.60;3.35;;;15.10;52.90;;;;;;5051051;28;20280;-61
2021/12/27 05:46:19;;;;;;;3.97;3.60;;;15.20;53.00;;;;;;5051573;28;20310;-59
2021/12/27 05:48:44;;;;;;;3.72;3.38;;;15.00;52.90;;;;;;5050675;28;20309;-59
2021/12/27 05:51:10;;;;;;;3.70;3.30;;;15.10;53.00;;;;;;5051768;28;20167;-59
2021/12/27 05:53:35;;;;;;;3.60;3.08;;;15.10;53.00;;;;;;5051354;28;20563;-59
2021/12/27 05:56:01;;;;;;;3.47;3.17;;;15.10;53.00;;;;;;5051034;28;20648;-60
2021/12/27 05:58:26;;;;;;;3.72;3.42;;;15.10;53.00;;;;;;5051226;28;20215;-60
2021/12/27 06:00:55;;;;;;;3.63;3.33;;;15.10;53.00;;;;;;5051440;28;20187;-60
2021/12/27 06:03:20;;;;;;;3.30;3.10;;;15.10;53.00;;;;;;5050220;28;20262;-60
2021/12/27 06:05:46;;;;;;;3.40;3.10;;;15.10;53.00;;;;;;5051717;28;20588;-60
2021/12/27 06:08:11;;;;;;;3.45;3.10;;;15.10;52.90;;;;;;5051448;28;20713;-61
2021/12/27 06:10:37;;;;;;;3.25;2.95;;;15.20;53.00;;;;;;5050369;28;20217;-60
2021/12/27 06:13:03;;;;;;;3.28;2.97;;;15.30;53.10;;;;;;5051464;28;20217;-60
2021/12/27 06:15:28;;;;;;;3.05;2.85;;;15.40;52.90;;;;;;5050420;28;20171;-59
2021/12/27 06:17:54;;;;;;;3.45;3.17;;;15.50;52.70;;;;;;5050499;28;20202;-59
2021/12/27 06:20:19;;;;;;;3.58;3.10;;;15.70;52.60;;;;;;5050987;28;20218;-59
2021/12/27 06:22:48;;;;;;;3.17;2.90;;;15.90;52.40;;;;;;5051177;28;20171;-59
2021/12/27 06:25:14;;;;;;;3.10;2.80;;;16.00;52.10;;;;;;5050502;28;20255;-58
2021/12/27 06:27:39;;;;;;;3.10;2.90;;;16.20;51.80;;;;;;5050660;28;20646;-59
2021/12/27 06:30:09;;;;;;;3.00;2.80;;;16.40;51.60;;;;;;5050896;28;20179;-58
2021/12/27 06:32:35;;;;;;;3.35;3.05;;;16.50;51.50;;;;;;5050105;28;20182;-59
2021/12/27 06:35:01;;;;;;;2.88;2.67;;;16.60;51.30;;;;;;5051163;28;20525;-57
2021/12/27 06:37:26;;;;;;;3.67;3.38;;;16.70;51.20;;;;;;5050969;28;20656;-58
2021/12/27 06:39:52;;;;;;;2.97;2.78;;;16.70;51.10;;;;;;5050160;28;20648;-58
2021/12/27 06:42:17;;;;;;;3.20;2.90;;;16.80;51.10;;;;;;5050850;28;20167;-59
2021/12/27 06:44:43;;;;;;;2.80;2.60;;;16.70;51.10;;;;;;5050495;28;20182;-58
2021/12/27 06:47:08;;;;;;;3.00;2.78;;;16.80;51.00;;;;;;5050123;28;20167;-58
2021/12/27 06:49:36;;;;;;;2.55;2.40;;;16.90;50.90;;;;;;5050142;28;20221;-59
2021/12/27 06:52:02;;;;;;;2.72;2.53;;;17.00;50.70;;;;;;5050270;28;20179;-58
2021/12/27 06:54:27;;;;;;;3.13;2.90;;;17.00;50.60;;;;;;5050284;28;20229;-58
2021/12/27 06:56:59;;;;;;;2.95;2.55;;;17.10;50.60;;;;;;5050861;28;20167;-60
2021/12/27 06:59:28;;;;;;;2.70;2.50;;;17.10;50.60;;;;;;5049651;28;20260;-59
2021/12/27 07:01:54;;;;;;;3.65;3.33;;;17.20;50.60;;;;;;5050674;28;20618;-59
2021/12/27 07:04:19;;;;;;;3.20;3.00;;;17.20;50.60;;;;;;5050746;28;20179;-57
2021/12/27 07:06:45;;;;;;;3.15;2.95;;;17.20;50.50;;;;;;5050172;28;20198;-59
2021/12/27 07:09:10;;;;;;;2.75;2.55;;;17.30;50.60;;;;;;5050845;28;20175;-59
2021/12/27 07:11:36;;;;;;;2.70;2.50;;;17.30;50.60;;;;;;5050513;28;20267;-59
2021/12/27 07:14:02;;;;;;;3.15;2.80;;;17.40;50.50;;;;;;5049893;28;20175;-60
2021/12/27 07:16:27;;;;;;;3.65;2.53;;;17.40;50.40;;;;;;5050584;28;20285;-59
2021/12/27 07:18:53;;;;;;;2.63;2.40;;;17.50;50.30;;;;;;5050516;28;20215;-59
2021/12/27 07:21:19;;;;;;;2.65;2.45;;;17.60;50.20;;;;;;5049468;28;20568;-59
2021/12/27 07:23:45;;;;;;;2.80;2.60;;;17.60;50.10;;;;;;5050713;28;20216;-59
2021/12/27 07:26:10;;;;;;;2.70;2.50;;;17.60;50.00;;;;;;5051128;28;20198;-59
2021/12/27 07:28:36;;;;;;;2.70;2.47;;;17.70;50.00;;;;;;5052912;28;20250;-60
2021/12/27 07:31:01;;;;;;;2.78;2.58;;;17.80;50.00;;;;;;5054309;28;20221;-58
2021/12/27 07:33:27;;;;;;;2.42;2.22;;;17.90;49.80;;;;;;5053837;28;20255;-59
2021/12/27 07:35:52;;;;;;;3.33;2.50;;;18.00;49.60;;;;;;5053597;28;20656;-60
2021/12/27 07:38:18;;;;;;;2.40;2.25;;;18.20;49.40;;;;;;5054151;28;20179;-60
2021/12/27 07:40:43;;;;;;;2.50;2.33;;;18.30;49.80;;;;;;5053766;28;20198;-59
2021/12/27 07:43:09;;;;;;;2.45;2.25;;;18.50;49.00;;;;;;5053031;28;20214;-62
2021/12/27 07:45:34;;;;;;;2.53;2.33;;;18.60;48.80;;;;;;5053636;28;20178;-58
2021/12/27 07:48:00;;;;;;;2.88;2.13;;;18.70;48.70;;;;;;5053665;28;20230;-59
2021/12/27 07:50:25;;;;;;;2.85;2.60;;;18.80;48.40;;;;;;5053017;28;20194;-64
2021/12/27 07:52:51;;;;;;;2.88;2.67;;;18.80;48.40;;;;;;5053689;28;20175;-65
2021/12/27 07:55:17;;;;;;;2.78;2.20;;;18.80;48.60;;;;;;5053003;28;20178;-65
2021/12/27 07:57:42;;;;;;;4.10;2.72;;;18.80;48.70;;;;;;5053306;28;20250;-65
2021/12/27 08:00:08;;;;;;;2.53;2.30;;;18.70;48.80;;;;;;5053443;28;20692;-65
2021/12/27 08:02:34;;;;;;;2.65;2.45;;;18.60;49.10;;;;;;5052657;28;20175;-65
2021/12/27 08:04:59;;;;;;;2.53;2.30;;;18.50;49.30;;;;;;5053616;28;20185;-65
2021/12/27 08:07:25;;;;;;;3.78;2.38;;;18.40;49.40;;;;;;5053029;28;20190;-64
2021/12/27 08:09:50;;;;;;;2.47;2.28;;;18.40;49.50;;;;;;5052665;28;20298;-63
2021/12/27 08:12:16;;;;;;;2.67;2.47;;;18.40;49.50;;;;;;5053251;28;20246;-65
2021/12/27 08:14:41;;;;;;;2.50;2.30;;;18.40;49.60;;;;;;5053048;28;20630;-64
2021/12/27 08:17:07;;;;;;;2.22;2.03;;;18.40;49.60;;;;;;5052418;28;20642;-63
2021/12/27 08:19:33;;;;;;;2.47;2.28;;;18.40;49.50;;;;;;5052866;28;20207;-63
2021/12/27 08:21:59;;;;;;;2.30;2.10;;;18.50;49.60;;;;;;5053083;28;20250;-62
2021/12/27 08:24:24;;;;;;;3.55;2.35;;;18.50;49.60;;;;;;5052248;28;20313;-64
2021/12/27 08:26:50;;;;;;;6.85;2.50;;;18.50;49.60;;;;;;5052448;28;20178;-62
2021/12/27 08:29:15;;;;;;;2.28;2.08;;;18.50;49.90;;;;;;5062401;28;20174;-62
2021/12/27 08:31:43;;;;;;;3.15;2.70;;;18.60;49.80;;;;;;5068184;28;20167;-65
2021/12/27 08:34:09;;;;;;;4.05;2.28;;;18.60;49.60;;;;;;5072944;28;20206;-64
2021/12/27 08:36:34;;;;;;;2.53;2.10;;;18.60;49.50;;;;;;5059780;28;20195;-64
2021/12/27 08:39:00;;;;;;;2.78;2.17;;;18.70;49.50;;;;;;5051722;28;20294;-63
2021/12/27 08:41:27;;;;;;;2.85;2.10;;;18.70;49.50;;;;;;5052267;28;20179;-62
2021/12/27 08:44:05;;;;;;;3.45;2.60;;;18.70;49.50;;;;;;5055137;28;20171;-63
2021/12/27 08:46:31;;;;;;;2.55;2.35;;;18.80;49.40;;;;;;5071593;28;20633;-63
2021/12/27 08:48:56;;;;;;;3.78;2.10;;;18.90;49.30;;;;;;5072451;28;20230;-62
2021/12/27 08:51:23;;;;;;;2.90;1.92;;;18.90;49.30;;;;;;5072182;28;20262;-63
2021/12/27 08:53:49;;;;;;;2.50;2.30;;;18.90;49.20;;;;;;5072025;28;20253;-62
2021/12/27 08:56:14;;;;;;;2.33;2.03;;;19.00;49.20;;;;;;5072338;28;20660;-63
2021/12/27 08:58:40;;;;;;;2.80;2.20;;;19.00;49.20;;;;;;5071239;28;20560;-64
2021/12/27 09:01:06;;;;;;;2.80;2.33;;;19.00;49.20;;;;;;5068661;28;20514;-64
2021/12/27 09:03:32;;;;;;;2.60;2.25;;;19.00;49.20;;;;;;5052133;28;20171;-64
2021/12/27 09:05:57;;;;;;;2.80;2.22;;;19.00;49.20;;;;;;5051629;28;20185;-63
2021/12/27 09:08:23;;;;;;;2.35;2.15;;;19.00;49.20;;;;;;5052051;28;20630;-63
2021/12/27 09:10:48;;;;;;;2.92;2.67;;;19.00;49.30;;;;;;5052129;28;20178;-64
2021/12/27 09:13:14;;;;;;;2.47;2.28;;;19.00;49.40;;;;;;5051631;28;20178;-62
2021/12/27 09:15:40;;;;;;;2.17;1.98;;;19.00;49.50;;;;;;5051985;28;20178;-63
2021/12/27 09:18:08;;;;;;;2.92;2.47;;;18.90;49.60;;;;;;5052204;28;20198;-63
2021/12/27 09:20:34;;;;;;;2.58;1.90;;;19.00;49.50;;;;;;5050943;28;20203;-63
2021/12/27 09:22:59;;;;;;;2.35;2.03;;;18.90;49.70;;;;;;5052447;28;20182;-62
2021/12/27 09:25:25;;;;;;;2.35;2.15;;;18.80;49.70;;;;;;5051499;28;20213;-63
2021/12/27 09:27:50;;;;;;;2.33;2.15;;;18.70;50.00;;;;;;5051412;28;20178;-62
2021/12/27 09:30:16;;;;;;;2.47;2.13;;;18.60;50.20;;;;;;5052135;28;20175;-67
2021/12/27 09:32:42;;;;;;;2.33;2.20;;;18.50;50.50;;;;;;5051987;28;20233;-68
2021/12/27 09:35:08;;;;;;;3.58;2.45;;;18.30;50.50;;;;;;5054513;28;20170;-65
2021/12/27 09:37:33;;;;;;;2.85;2.55;;;18.20;50.70;;;;;;5072028;28;20265;-64
2021/12/27 09:39:59;;;;;;;3.08;2.63;;;18.20;50.90;;;;;;5051450;28;20226;-63
2021/12/27 09:42:25;;;;;;;2.25;2.15;;;18.20;51.00;;;;;;5050804;28;20202;-63
2021/12/27 09:44:52;;;;;;;2.80;2.53;;;18.30;51.20;;;;;;5051995;28;20186;-64
2021/12/27 09:47:17;;;;;;;4.10;2.67;;;18.30;51.00;;;;;;5051592;28;20207;-65
2021/12/27 09:49:43;;;;;;;2.97;2.40;;;18.30;50.90;;;;;;5049799;28;20269;-64
2021/12/27 09:52:09;;;;;;;2.92;2.22;;;18.40;51.00;;;;;;5051455;28;20841;-63
2021/12/27 09:54:37;;;;;;;2.35;2.15;;;18.40;51.10;;;;;;5051224;28;20210;-64
2021/12/27 09:57:03;;;;;;;3.00;2.70;;;18.30;51.10;;;;;;5051012;28;20330;-66
2021/12/27 09:59:29;;;;;;;3.78;2.53;;;18.40;51.20;;;;;;5051460;28;20301;-65
2021/12/27 10:01:54;;;;;;;3.17;2.60;;;18.40;51.10;;;;;;5050761;28;20252;-65
2021/12/27 10:04:20;;;;;;;3.13;2.70;;;18.40;51.20;;;;;;5050863;28;20190;-64
2021/12/27 10:06:47;;;;;;;5.00;2.17;;;18.50;51.20;;;;;;5051213;28;20171;-64
2021/12/27 10:09:13;;;;;;;3.03;2.40;;;18.50;51.10;;;;;;5050709;28;20278;-63
2021/12/27 10:11:39;;;;;;;3.22;2.20;;;18.50;51.10;;;;;;5051010;28;20190;-64
2021/12/27 10:14:14;;;;;;;5.05;2.15;;;18.50;51.00;;;;;;5051045;28;20666;-64
2021/12/27 10:16:46;;;;;;;2.53;2.08;;;18.50;51.00;;;;;;5050444;28;20327;-66
2021/12/27 10:19:15;;;;;;;2.28;2.10;;;18.50;51.00;;;;;;5051132;28;20221;-63
2021/12/27 10:21:41;;;;;;;2.85;2.50;;;18.50;51.00;;;;;;5050942;28;20183;-63
2021/12/27 10:24:16;;;;;;;2.30;2.10;;;18.50;51.10;;;;;;5050446;28;20175;-63
2021/12/27 10:26:46;;;;;;;2.67;2.15;;;18.50;51.10;;;;;;5050745;28;20258;-64
2021/12/27 10:29:17;;;;;;;2.40;2.20;;;18.50;51.10;;;;;;5051042;28;20183;-65
2021/12/27 10:31:52;;;;;;;3.72;2.60;;;18.50;51.00;;;;;;5050035;28;20179;-65
2021/12/27 10:34:18;;;;;;;2.30;2.10;;;18.60;51.10;;;;;;5051149;28;20182;-65
2021/12/27 10:37:01;;;;;;;2.25;2.05;;;18.60;51.10;;;;;;5067179;28;20175;-64
2021/12/27 10:39:46;;;;;;;3.05;2.00;;;18.60;51.10;;;;;;5070666;28;20293;-64
2021/12/27 10:42:30;;;;;;;2.13;1.98;;;18.50;51.10;;;;;;5071315;28;20273;-64
2021/12/27 10:44:58;;;;;;;2.20;2.10;;;18.60;51.10;;;;;;5070507;28;20174;-64
2021/12/27 10:47:31;;;;;;;2.75;2.55;;;18.60;51.10;;;;;;5070622;28;20644;-63
2021/12/27 10:50:03;;;;;;;4.45;2.33;;;18.60;51.10;;;;;;5058855;28;20670;-62
2021/12/27 10:52:50;;;;;;;2.92;2.05;;;18.60;51.10;;;;;;5049747;28;20182;-62
2021/12/27 10:55:30;;;;;;;2.33;2.10;;;18.60;51.10;;;;;;5050632;28;20571;-64
2021/12/27 10:58:23;;;;;;;3.85;2.88;;;18.60;51.10;;;;;;5050866;28;20167;-64
2021/12/27 11:00:57;;;;;;;2.13;2.00;;;18.60;51.10;;;;;;5052009;28;20242;-64
2021/12/27 11:03:39;;;;;;;2.40;2.20;;;18.50;51.30;;;;;;5054640;28;20171;-63
2021/12/27 11:06:06;;;;;;;3.67;2.20;;;18.40;51.30;;;;;;5053849;28;20202;-65
2021/12/27 11:08:32;;;;;;;2.40;2.20;;;18.40;51.60;;;;;;5054059;28;20175;-64
2021/12/27 11:10:58;;;;;;;2.25;2.15;;;18.30;51.70;;;;;;5054545;28;20178;-64
2021/12/27 11:13:24;;;;;;;2.97;2.00;;;18.20;51.70;;;;;;5053295;28;20170;-63
2021/12/27 11:15:50;;;;;;;2.50;2.30;;;18.30;51.90;;;;;;5054077;28;20179;-63
2021/12/27 11:18:15;;;;;;;2.45;2.13;;;18.20;51.80;;;;;;5054607;28;20228;-63
2021/12/27 11:20:44;;;;;;;2.40;2.20;;;18.30;51.80;;;;;;5053127;28;20286;-61
2021/12/27 11:23:10;;;;;;;2.28;2.08;;;18.40;51.70;;;;;;5054199;28;20179;-63
2021/12/27 11:25:36;;;;;;;2.13;1.90;;;18.40;51.70;;;;;;5053911;28;20224;-62
2021/12/27 11:28:03;;;;;;;2.30;2.10;;;18.40;51.50;;;;;;5051955;28;20175;-64
2021/12/27 11:30:30;;;;;;;3.13;2.30;;;18.40;51.50;;;;;;5053806;28;20179;-64
2021/12/27 11:33:03;;;;;;;6.78;2.42;;;18.40;51.60;;;;;;5053976;28;20634;-64
2021/12/27 11:35:33;;;;;;;6.80;2.55;;;18.40;51.90;;;;;;5058700;28;20645;-64
2021/12/27 11:38:01;;;;;;;2.58;2.30;;;18.30;52.00;;;;;;5072604;28;20177;-64
2021/12/27 11:40:31;;;;;;;2.13;1.92;;;18.20;52.00;;;;;;5072737;28;21141;-64
2021/12/27 11:43:01;;;;;;;5.05;2.22;;;18.10;52.10;;;;;;5056370;28;20171;-63
2021/12/27 11:45:40;;;;;;;4.07;2.60;;;18.10;52.30;;;;;;5073521;28;20186;-64
2021/12/27 11:48:10;;;;;;;4.15;2.35;;;18.10;52.30;;;;;;5073016;28;20287;-62
2021/12/27 11:51:05;;;;;;;3.08;2.03;;;18.10;52.30;;;;;;5073242;28;20629;-62
2021/12/27 11:53:41;;;;;;;3.72;2.17;;;18.10;52.10;;;;;;5073505;28;20185;-63
2021/12/27 11:56:10;;;;;;;2.13;1.90;;;18.10;52.10;;;;;;5073078;28;20178;-62
2021/12/27 11:58:40;;;;;;;4.72;2.33;;;18.10;52.10;;;;;;5058889;28;20175;-63
2021/12/27 12:01:26;;;;;;;2.55;2.35;;;18.10;52.10;;;;;;5053645;28;20274;-65
2021/12/27 12:03:55;;;;;;;4.65;2.55;;;18.10;52.10;;;;;;5049250;28;20591;-64
2021/12/27 12:06:42;;;;;;;3.95;2.97;;;18.10;52.20;;;;;;5053508;28;20262;-63
2021/12/27 12:09:18;;;;;;;3.55;2.30;;;18.10;52.40;;;;;;5052582;28;20178;-61
2021/12/27 12:11:59;;;;;;;3.10;2.10;;;18.00;52.50;;;;;;5052650;28;20249;-63
2021/12/27 12:14:35;;;;;;;2.75;2.28;;;18.00;52.50;;;;;;5052177;28;20197;-64
2021/12/27 12:17:03;;;;;;;3.83;2.60;;;17.90;52.60;;;;;;5052700;28;20534;-62
2021/12/27 12:19:43;;;;;;;6.97;2.55;;;17.90;52.60;;;;;;5052771;28;20203;-63
2021/12/27 12:22:33;;;;;;;2.90;2.30;;;18.00;52.60;;;;;;5053158;28;20221;-62
2021/12/27 12:25:25;;;;;;;6.28;2.80;;;18.00;52.50;;;;;;5053347;28;20236;-64
2021/12/27 12:27:57;;;;;;;3.63;2.17;;;18.00;52.50;;;;;;5052359;28;20191;-64
2021/12/27 12:30:25;;;;;;;2.90;2.20;;;18.00;52.50;;;;;;5052080;28;20175;-64
2021/12/27 12:33:04;;;;;;;5.63;2.10;;;18.00;52.50;;;;;;5052937;28;20187;-64
2021/12/27 12:35:37;;;;;;;2.97;2.00;;;18.30;52.70;;;;;;5058746;28;20210;-65
2021/12/27 12:38:19;;;;;;;3.13;2.25;;;17.90;52.80;;;;;;5072224;28;20533;-65
2021/12/27 12:40:56;;;;;;;2.80;2.30;;;17.80;52.90;;;;;;5072622;28;20221;-64
2021/12/27 12:43:46;;;;;;;2.35;2.15;;;17.80;53.20;;;;;;5072580;28;20826;-64
2021/12/27 12:46:40;;;;;;;2.55;2.05;;;17.80;53.20;;;;;;5072859;28;20182;-65
2021/12/27 12:49:06;;;;;;;3.05;2.53;;;17.70;53.20;;;;;;5072561;28;20234;-64
2021/12/27 12:52:02;;;;;;;3.42;2.25;;;17.80;53.30;;;;;;5071564;28;20166;-65
2021/12/27 12:54:35;;;;;;;3.58;2.40;;;17.80;53.20;;;;;;5072306;28;20190;-65
2021/12/27 12:57:15;;;;;;;3.97;2.50;;;17.80;53.00;;;;;;5071350;28;20510;-65
2021/12/27 12:59:45;;;;;;;3.00;2.70;;;17.70;53.00;;;;;;5051305;28;20206;-65